createdAt,value
2023-08-29T00:00:12.451Z,5.15
2023-08-29T00:05:09.129Z,5.10
2023-08-29T00:10:02.973Z,5.40
2023-08-29T00:14:57.549Z,5.30
2023-08-29T00:19:52.227Z,5.20
2023-08-29T00:24:45.854Z,5.35
2023-08-29T00:29:39.042Z,5.28
2023-08-29T00:34:33.709Z,5.22
2023-08-29T00:39:28.320Z,5.05
2023-08-29T00:44:21.499Z,5.47
2023-08-29T00:49:19.667Z,5.10
2023-08-29T00:54:13.380Z,5.30
2023-08-29T00:59:08.093Z,5.10
2023-08-29T01:04:02.243Z,5.20
2023-08-29T01:08:55.903Z,5.80
2023-08-29T01:13:56.516Z,5.68
2023-08-29T01:18:53.887Z,5.03
2023-08-29T01:23:56.344Z,5.90
2023-08-29T01:28:51.847Z,5.10
2023-08-29T01:33:45.537Z,6.63
2023-08-29T01:38:38.760Z,5.28
2023-08-29T01:43:32.133Z,6.00
2023-08-29T01:48:26.837Z,5.20
2023-08-29T01:53:20.267Z,5.30
2023-08-29T01:58:15.695Z,5.60
2023-08-29T02:03:09.806Z,5.50
2023-08-29T02:08:04.993Z,5.68
2023-08-29T02:12:58.645Z,5.75
2023-08-29T02:17:52.464Z,5.93
2023-08-29T02:22:45.655Z,5.18
2023-08-29T02:27:40.742Z,5.43
2023-08-29T02:32:36.204Z,5.78
2023-08-29T02:37:29.615Z,5.85
2023-08-29T02:42:24.623Z,5.53
2023-08-29T02:47:19.676Z,5.32
2023-08-29T02:52:13.016Z,5.50
2023-08-29T02:57:06.632Z,5.57
2023-08-29T03:02:01.691Z,5.20
2023-08-29T03:06:56.462Z,5.55
2023-08-29T03:11:50.641Z,5.70
2023-08-29T03:16:44.122Z,5.50
2023-08-29T03:21:40.624Z,5.47
2023-08-29T03:26:35.358Z,5.53
2023-08-29T03:31:29.286Z,5.80
2023-08-29T03:36:22.584Z,5.57
2023-08-29T03:41:15.847Z,6.07
2023-08-29T03:46:11.278Z,6.00
2023-08-29T03:51:07.763Z,5.63
2023-08-29T03:56:03.825Z,5.90
2023-08-29T04:00:58.321Z,5.75
2023-08-29T04:05:53.220Z,5.53
2023-08-29T04:10:46.538Z,5.40
2023-08-29T04:15:39.888Z,5.80
2023-08-29T04:20:33.459Z,6.05
2023-08-29T04:25:28.413Z,6.00
2023-08-29T04:30:21.877Z,5.40
2023-08-29T04:35:15.187Z,6.10
2023-08-29T04:40:11.648Z,5.50
2023-08-29T04:45:07.400Z,5.55
2023-08-29T04:50:01.857Z,5.65
2023-08-29T04:54:55.142Z,6.28
2023-08-29T04:59:48.360Z,6.50
2023-08-29T05:04:44.183Z,5.95
2023-08-29T05:09:37.507Z,5.28
2023-08-29T05:14:31.312Z,6.05
2023-08-29T05:19:25.090Z,5.75
2023-08-29T05:24:19.756Z,6.22
2023-08-29T05:29:12.890Z,5.63
2023-08-29T05:34:06.240Z,5.40
2023-08-29T05:39:00.560Z,5.60
2023-08-29T05:43:56.261Z,6.95
2023-08-29T05:48:49.565Z,6.25
2023-08-29T05:53:43.267Z,6.50
2023-08-29T05:58:36.989Z,6.18
2023-08-29T06:03:31.858Z,5.90
2023-08-29T06:08:25.664Z,5.85
2023-08-29T06:13:19.509Z,5.93
2023-08-29T06:18:12.811Z,5.95
2023-08-29T06:23:08.511Z,5.75
2023-08-29T06:28:01.713Z,5.20
2023-08-29T06:32:55.619Z,5.38
2023-08-29T06:37:48.921Z,5.40
2023-08-29T06:42:43.980Z,5.45
2023-08-29T06:47:37.166Z,5.40
2023-08-29T06:52:30.248Z,5.25
2023-08-29T06:57:23.337Z,6.63
2023-08-29T07:02:17.942Z,6.15
2023-08-29T07:07:11.044Z,5.45
2023-08-29T07:12:04.188Z,5.53
2023-08-29T07:17:09.502Z,6.05
2023-08-29T07:22:17.472Z,6.20
2023-08-29T07:27:16.926Z,5.55
2023-08-29T07:32:10.225Z,5.65
2023-08-29T07:37:05.610Z,5.47
2023-08-29T07:42:01.052Z,5.68
2023-08-29T07:47:12.111Z,5.25
2023-08-29T07:52:07.911Z,5.65
2023-08-29T07:57:02.852Z,5.85
2023-08-29T08:01:56.149Z,5.35
2023-08-29T08:06:49.320Z,6.07
2023-08-29T08:11:42.573Z,6.03
2023-08-29T08:16:40.413Z,6.18
2023-08-29T08:21:33.629Z,5.45
2023-08-29T08:26:26.962Z,5.80
2023-08-29T08:31:20.360Z,5.88
2023-08-29T08:36:15.007Z,5.63
2023-08-29T08:41:08.522Z,5.60
2023-08-29T08:46:02.204Z,5.43
2023-08-29T08:50:57.034Z,5.43
2023-08-29T08:55:52.042Z,5.82
2023-08-29T09:00:45.414Z,5.65
2023-08-29T09:05:38.579Z,5.10
2023-08-29T09:10:34.928Z,4.97
2023-08-29T09:15:29.704Z,4.82
2023-08-29T09:20:25.370Z,5.35
2023-08-29T09:25:18.854Z,5.40
2023-08-29T09:30:16.009Z,5.20
2023-08-29T09:35:14.459Z,4.93
2023-08-29T09:40:25.762Z,4.95
2023-08-29T09:45:24.417Z,4.47
2023-08-29T09:50:19.551Z,5.05
2023-08-29T09:55:16.232Z,4.70
2023-08-29T10:00:14.000Z,4.97
2023-08-29T10:05:11.855Z,4.43
2023-08-29T10:10:09.647Z,5.10
2023-08-29T10:15:05.256Z,4.95
2023-08-29T10:20:01.760Z,5.50
2023-08-29T10:24:56.367Z,5.43
2023-08-29T10:29:51.369Z,5.00
2023-08-29T10:34:44.645Z,5.90
2023-08-29T10:39:37.872Z,5.63
2023-08-29T10:44:45.314Z,4.88
2023-08-29T10:49:46.241Z,4.85
2023-08-29T10:54:40.139Z,5.82
2023-08-29T10:59:35.532Z,4.85
2023-08-29T11:04:33.246Z,4.75
2023-08-29T11:09:30.740Z,4.68
2023-08-29T11:14:24.184Z,4.05
2023-08-29T11:19:20.199Z,4.60
2023-08-29T11:24:16.789Z,5.68
2023-08-29T11:29:12.281Z,4.05
2023-08-29T11:34:05.830Z,4.30
2023-08-29T11:38:59.747Z,4.70
2023-08-29T11:44:16.955Z,3.78
2023-08-29T11:49:15.806Z,4.00
2023-08-29T11:54:43.735Z,4.32
2023-08-29T11:59:40.801Z,4.00
2023-08-29T12:04:35.397Z,4.00
2023-08-29T12:09:29.125Z,3.97
2023-08-29T12:14:25.973Z,3.67
2023-08-29T12:19:19.760Z,3.63
2023-08-29T12:24:15.712Z,4.20
2023-08-29T12:29:08.897Z,3.60
2023-08-29T12:34:02.880Z,3.45
2023-08-29T12:38:56.816Z,4.22
2023-08-29T12:43:51.514Z,3.88
2023-08-29T12:48:44.950Z,3.42
2023-08-29T12:53:38.467Z,3.63
2023-08-29T12:58:31.678Z,3.92
2023-08-29T13:03:26.768Z,4.10
2023-08-29T13:08:20.822Z,3.85
2023-08-29T13:13:14.133Z,3.85
2023-08-29T13:18:07.808Z,3.03
2023-08-29T13:23:03.201Z,3.60
2023-08-29T13:27:56.992Z,3.80
2023-08-29T13:32:50.790Z,3.10
2023-08-29T13:37:45.321Z,3.42
2023-08-29T13:42:40.010Z,3.90
2023-08-29T13:47:33.644Z,3.65
2023-08-29T13:52:26.905Z,3.42
2023-08-29T13:57:20.168Z,3.63
2023-08-29T14:02:14.984Z,3.33
2023-08-29T14:07:11.573Z,3.55
2023-08-29T14:12:05.223Z,3.63
2023-08-29T14:16:58.476Z,5.10
2023-08-29T14:21:53.143Z,3.50
2023-08-29T14:26:47.067Z,3.45
2023-08-29T14:31:40.416Z,3.28
2023-08-29T14:36:33.893Z,3.70
2023-08-29T14:41:28.716Z,4.10
2023-08-29T14:46:22.177Z,3.13
2023-08-29T14:51:15.853Z,3.60
2023-08-29T14:56:09.113Z,3.50
2023-08-29T15:01:04.016Z,3.30
2023-08-29T15:05:58.306Z,4.03
2023-08-29T15:10:52.315Z,3.60
2023-08-29T15:15:45.779Z,3.65
2023-08-29T15:20:42.807Z,4.60
2023-08-29T15:25:36.581Z,5.10
2023-08-29T15:30:29.769Z,4.30
2023-08-29T15:35:23.031Z,3.80
2023-08-29T15:40:17.722Z,3.72
2023-08-29T15:45:11.690Z,3.80
2023-08-29T15:50:05.229Z,4.00
2023-08-29T15:54:58.566Z,4.50
2023-08-29T15:59:54.250Z,4.22
2023-08-29T16:04:47.545Z,4.47
2023-08-29T16:09:40.856Z,5.05
2023-08-29T16:14:34.064Z,5.35
2023-08-29T16:19:29.165Z,5.10
2023-08-29T16:24:22.357Z,4.53
2023-08-29T16:29:16.023Z,5.00
2023-08-29T16:34:09.553Z,5.30
2023-08-29T16:39:04.602Z,4.85
2023-08-29T16:43:58.063Z,5.22
2023-08-29T16:48:51.354Z,5.57
2023-08-29T16:53:44.784Z,5.05
2023-08-29T16:58:39.586Z,5.40
2023-08-29T17:03:33.016Z,5.20
2023-08-29T17:08:26.693Z,5.38
2023-08-29T17:13:20.011Z,5.53
2023-08-29T17:18:14.727Z,5.88
2023-08-29T17:23:09.493Z,5.70
2023-08-29T17:28:02.748Z,5.88
2023-08-29T17:32:56.029Z,6.15
2023-08-29T17:37:50.711Z,6.43
2023-08-29T17:42:44.630Z,6.07
2023-08-29T17:47:38.240Z,5.85
2023-08-29T17:52:32.281Z,7.15
2023-08-29T17:57:26.903Z,6.13
2023-08-29T18:02:20.187Z,6.97
2023-08-29T18:07:14.744Z,5.95
2023-08-29T18:12:11.205Z,7.00
2023-08-29T18:17:06.000Z,6.28
2023-08-29T18:21:59.230Z,6.00
2023-08-29T18:26:52.493Z,6.32
2023-08-29T18:31:45.713Z,7.03
2023-08-29T18:36:40.404Z,7.10
2023-08-29T18:41:33.782Z,6.50
2023-08-29T18:46:26.993Z,6.38
2023-08-29T18:51:20.433Z,6.90
2023-08-29T18:56:18.148Z,6.55
2023-08-29T19:01:12.013Z,6.40
2023-08-29T19:06:09.006Z,6.40
2023-08-29T19:11:06.226Z,6.22
2023-08-29T19:16:01.420Z,6.45
2023-08-29T19:20:54.920Z,6.50
2023-08-29T19:25:48.528Z,6.32
2023-08-29T19:30:41.948Z,7.00
2023-08-29T19:35:39.193Z,5.88
2023-08-29T19:40:33.000Z,5.78
2023-08-29T19:45:27.264Z,6.30
2023-08-29T19:50:20.682Z,6.20
2023-08-29T19:55:15.581Z,6.55
2023-08-29T20:00:10.867Z,6.35
2023-08-29T20:05:07.162Z,5.75
2023-08-29T20:10:01.179Z,5.93
2023-08-29T20:14:55.925Z,6.25
2023-08-29T20:19:49.199Z,5.95
2023-08-29T20:24:42.422Z,5.30
2023-08-29T20:29:35.777Z,6.10
2023-08-29T20:34:30.514Z,5.97
2023-08-29T20:39:23.786Z,5.90
2023-08-29T20:44:17.883Z,5.93
2023-08-29T20:49:13.168Z,5.63
2023-08-29T20:54:08.680Z,6.30
2023-08-29T20:59:02.508Z,5.72
2023-08-29T21:03:55.881Z,5.97
2023-08-29T21:08:49.208Z,5.75
2023-08-29T21:13:43.801Z,6.28
2023-08-29T21:18:37.396Z,5.50
2023-08-29T21:23:31.065Z,5.35
2023-08-29T21:28:25.409Z,5.45
2023-08-29T21:33:20.312Z,5.72
2023-08-29T21:38:13.992Z,5.97
2023-08-29T21:43:08.949Z,5.72
2023-08-29T21:48:03.033Z,5.60
2023-08-29T21:52:58.959Z,6.15
2023-08-29T21:57:52.140Z,6.47
2023-08-29T22:02:45.444Z,5.85
2023-08-29T22:07:39.410Z,5.60
2023-08-29T22:12:34.045Z,5.90
2023-08-29T22:17:27.457Z,5.32
2023-08-29T22:22:20.805Z,5.82
2023-08-29T22:27:14.139Z,5.63
2023-08-29T22:32:10.237Z,5.65
2023-08-29T22:37:05.502Z,5.63
2023-08-29T22:41:58.718Z,5.85
2023-08-29T22:46:52.062Z,5.55
2023-08-29T22:51:47.211Z,5.88
2023-08-29T22:56:40.542Z,5.15
2023-08-29T23:01:33.887Z,5.28
2023-08-29T23:06:27.197Z,5.05
2023-08-29T23:11:21.900Z,5.50
2023-08-29T23:16:17.330Z,4.78
2023-08-29T23:21:10.866Z,5.18
2023-08-29T23:26:05.661Z,5.50
2023-08-29T23:31:00.438Z,5.50
2023-08-29T23:35:53.636Z,5.22
2023-08-29T23:40:49.327Z,5.47
2023-08-29T23:45:42.583Z,5.40
2023-08-29T23:50:37.189Z,5.32
2023-08-29T23:55:30.394Z,5.38
